Terminal Aerodrome Forecast
Issued by NWS Cleveland, OH

Home | Current Version | Previous Version | Text Only | Print | Product List | Glossary Off
Versions: 1 2 3 4 5 6 7 8 9 10 11 12 13 14 15 16 17 18 19 20 21 22 23 24 25 26 27

531
FTUS41 KCLE 082046 AAC
TAFCLE
TAF AMD
KCLE 082046Z 0821/0924 26018G28KT 6SM -SHSN BKN025 OVC035
      TEMPO 0821/0824 5SM -SHSN OVC015
     FM090000 26015G25KT 3SM -SHSN OVC015
      TEMPO 0900/0903 1 1/2SM -SHSN BKN008
     FM090300 27014G22KT 1SM -SHSN OVC008
     FM091200 27012KT 5SM -SHSN OVC012=

USA.gov is the U.S. government's official web portal to all federal, state and local government web resources and services.